Time;durP1;ratioP1;P1;durP2;ratioP2;P2;SDS_P1;SDS_P2;PMS_P1;PMS_P2;Temp;Humidity;BMP_temperature;BMP_pressure;BME280_temperature;BME280_humidity;BME280_pressure;Samples;Min_cycle;Max_cycle;Signal;HPM_P1;HPM_P2
2022/11/07 00:02:08;;;;;;;21.48;20.08;;;;;;;11.99;67.03;100632.63;5038900;28;20034;-71
2022/11/07 00:04:34;;;;;;;21.67;20.48;;;;;;;11.99;66.85;100629.94;5021222;28;20137;-71
2022/11/07 00:07:00;;;;;;;21.77;20.38;;;;;;;11.99;66.93;100641.56;5026868;28;20104;-72
2022/11/07 00:09:26;;;;;;;21.45;20.13;;;;;;;11.99;66.97;100632.63;5024689;28;20034;-71
2022/11/07 00:11:52;;;;;;;19.48;18.13;;;;;;;11.98;66.79;100642.66;5027784;28;20049;-73
2022/11/07 00:14:18;;;;;;;19.67;18.33;;;;;;;11.98;66.78;100639.94;5023207;28;20026;-75
2022/11/07 00:16:45;;;;;;;21.52;20.33;;;;;;;11.99;66.75;100635.34;5013620;28;20038;-74
2022/11/07 00:19:13;;;;;;;19.73;18.42;;;;;;;11.99;67.08;100622.63;5023859;28;20076;-73
2022/11/07 00:21:38;;;;;;;19.90;18.80;;;;;;;12.00;66.54;100634.28;5026502;28;20116;-71
2022/11/07 00:24:05;;;;;;;20.17;18.67;;;;;;;12.01;66.80;100642.13;5023917;28;20368;-73
2022/11/07 00:26:30;;;;;;;21.60;20.20;;;;;;;12.01;66.46;100636.72;5043156;28;20033;-73
2022/11/07 00:28:56;;;;;;;19.20;18.10;;;;;;;12.01;66.63;100639.44;5020878;28;20113;-71
2022/11/07 00:31:21;;;;;;;21.90;20.58;;;;;;;12.01;66.83;100644.84;5022464;28;20067;-74
2022/11/07 00:33:47;;;;;;;19.25;18.25;;;;;;;12.02;66.77;100656.47;5023629;28;20029;-72
2022/11/07 00:36:20;;;;;;;19.58;18.35;;;;;;;12.03;66.91;100658.13;5013160;28;20034;-71
2022/11/07 00:38:46;;;;;;;22.08;19.90;;;;;;;12.02;66.67;100651.91;5020713;28;20042;-73
2022/11/07 00:41:12;;;;;;;19.35;18.33;;;;;;;12.02;67.13;100651.91;5023137;28;20040;-73
2022/11/07 00:43:37;;;;;;;21.95;20.35;;;;;;;12.02;66.81;100668.16;5046392;28;20055;-71
2022/11/07 00:46:04;;;;;;;22.23;20.80;;;;;;;12.02;67.22;100668.16;5023244;28;20033;-73
2022/11/07 00:48:30;;;;;;;20.50;19.20;;;;;;;12.02;66.82;100665.44;5029197;28;20040;-72
2022/11/07 00:50:55;;;;;;;22.67;21.27;;;;;;;12.03;66.67;100663.56;5015932;28;20037;-72
2022/11/07 00:53:21;;;;;;;20.40;19.30;;;;;;;12.03;67.04;100671.69;5021980;28;20457;-75
2022/11/07 00:55:46;;;;;;;21.25;20.05;;;;;;;12.03;66.68;100660.84;5015763;28;20048;-71
2022/11/07 00:58:11;;;;;;;20.27;19.17;;;;;;;12.02;66.93;100657.31;5022585;28;20033;-71
2022/11/07 01:00:37;;;;;;;21.65;20.25;;;;;;;12.03;66.95;100667.06;5025382;28;20448;-71
2022/11/07 01:06:01;;;;;;;20.48;19.48;;;;;;;12.03;66.88;100667.06;5018072;28;20091;-72
2022/11/07 01:08:28;;;;;;;22.38;21.17;;;;;;;12.03;67.12;100667.06;5021722;28;20461;-72
2022/11/07 01:10:54;;;;;;;19.13;18.13;;;;;;;12.02;66.89;100670.03;5026731;28;20060;-71
2022/11/07 01:13:20;;;;;;;21.30;19.98;;;;;;;12.02;66.77;100670.88;5031873;28;20446;-73
2022/11/07 01:15:45;;;;;;;19.90;18.80;;;;;;;12.03;67.04;100677.91;5014745;28;20041;-73
2022/11/07 01:18:11;;;;;;;21.52;20.08;;;;;;;12.03;67.04;100677.91;5019249;28;20064;-72
2022/11/07 01:20:36;;;;;;;23.42;22.02;;;;;;;12.04;66.86;100692.25;5013440;28;20033;-71
2022/11/07 01:23:02;;;;;;;20.17;18.98;;;;;;;12.05;66.99;100688.47;5027805;28;20034;-72
2022/11/07 01:25:27;;;;;;;21.35;19.88;;;;;;;12.04;66.75;100687.66;5038223;28;20029;-74
2022/11/07 01:27:53;;;;;;;19.98;18.88;;;;;;;12.05;66.83;100685.78;5017367;28;20375;-72
2022/11/07 01:30:18;;;;;;;20.63;19.52;;;;;;;12.05;66.90;100689.31;5023730;28;20041;-71
2022/11/07 01:32:43;;;;;;;22.13;20.70;;;;;;;12.05;66.68;100683.88;5042198;28;20021;-72
2022/11/07 01:35:09;;;;;;;20.48;19.08;;;;;;;12.06;66.87;100690.09;5025125;28;20029;-72
2022/11/07 01:37:34;;;;;;;22.65;21.25;;;;;;;12.06;66.87;100690.09;5028645;28;20048;-75
2022/11/07 01:39:59;;;;;;;22.27;21.02;;;;;;;12.06;66.52;100690.09;5030702;28;20425;-73
2022/11/07 01:42:25;;;;;;;22.10;20.88;;;;;;;12.07;67.10;100692.56;5032594;28;20060;-73
2022/11/07 01:44:56;;;;;;;20.00;18.70;;;;;;;12.07;66.93;100698.00;5039922;28;20041;-73
2022/11/07 01:47:26;;;;;;;21.92;20.48;;;;;;;12.07;66.76;100689.88;5025833;28;20025;-70
2022/11/07 01:49:52;;;;;;;20.15;18.98;;;;;;;12.07;66.86;100692.56;5025754;28;20033;-72
2022/11/07 01:52:20;;;;;;;21.77;20.42;;;;;;;12.08;66.70;100696.09;5032323;28;20041;-73
2022/11/07 01:55:24;;;;;;;22.27;20.75;;;;;;;12.07;66.86;100698.00;5021822;28;20500;-73
2022/11/07 01:57:56;;;;;;;20.67;19.08;;;;;;;12.06;66.74;100696.34;5024656;28;20046;-74
2022/11/07 02:00:22;;;;;;;20.67;19.50;;;;;;;12.07;66.94;100700.69;5031751;28;20025;-71
2022/11/07 02:02:53;;;;;;;24.05;22.40;;;;;;;12.06;66.74;100699.03;5029739;28;20041;-72
2022/11/07 02:05:25;;;;;;;20.80;19.50;;;;;;;12.07;67.11;100691.72;5043483;28;20069;-73
2022/11/07 02:07:51;;;;;;;22.30;20.70;;;;;;;12.08;66.85;100693.38;5026837;28;20075;-72
2022/11/07 02:10:17;;;;;;;21.17;20.08;;;;;;;12.08;67.00;100687.97;5015254;28;20030;-73
2022/11/07 02:12:43;;;;;;;22.33;21.00;;;;;;;12.09;66.93;100695.00;5015501;28;20036;-72
2022/11/07 02:15:09;;;;;;;20.77;19.67;;;;;;;12.08;67.13;100691.50;5024767;28;20130;-74
2022/11/07 02:17:35;;;;;;;22.10;20.52;;;;;;;12.09;67.13;100700.44;5024497;28;20026;-73
2022/11/07 02:20:00;;;;;;;20.05;19.05;;;;;;;12.09;66.81;100703.13;5021630;28;20160;-72
2022/11/07 02:22:48;;;;;;;20.85;19.77;;;;;;;12.08;66.95;100701.50;5013758;28;20025;-73
2022/11/07 02:25:15;;;;;;;21.85;20.27;;;;;;;12.09;66.79;100697.72;5012021;28;20033;-72
2022/11/07 02:27:42;;;;;;;20.58;19.40;;;;;;;12.09;66.85;100700.44;5017281;28;20062;-72
2022/11/07 02:30:10;;;;;;;20.48;19.30;;;;;;;12.09;67.02;100703.13;5015809;28;20116;-73
2022/11/07 02:32:36;;;;;;;21.40;19.90;;;;;;;12.08;66.94;100699.63;5023580;28;20018;-70
2022/11/07 02:35:05;;;;;;;20.85;19.75;;;;;;;12.09;67.02;100703.94;5019339;28;20028;-73
2022/11/07 02:37:38;;;;;;;;;;;;;;;12.09;67.10;100697.72;5036401;28;20054;-74
2022/11/07 02:40:08;;;;;;;19.65;18.55;;;;;;;12.08;66.98;100691.50;5022618;28;19967;-74
2022/11/07 02:42:42;;;;;;;21.50;19.92;;;;;;;12.09;66.97;100698.53;5016138;28;20036;-74
2022/11/07 02:45:16;;;;;;;22.60;21.17;;;;;;;12.09;67.04;100705.84;5032908;28;20041;-72
2022/11/07 02:47:42;;;;;;;20.92;19.73;;;;;;;12.09;66.86;100695.81;5027853;28;20380;-73
2022/11/07 02:50:08;;;;;;;21.33;19.65;;;;;;;12.10;66.90;100685.84;5030689;28;20032;-72
2022/11/07 02:52:34;;;;;;;20.92;19.73;;;;;;;12.10;67.04;100683.94;5020017;28;20365;-73
2022/11/07 02:55:00;;;;;;;21.83;20.45;;;;;;;12.11;67.10;100682.03;5030669;28;20037;-74
2022/11/07 02:57:25;;;;;;;21.05;19.95;;;;;;;12.10;66.75;100686.66;5029758;28;20041;-73
2022/11/07 02:59:51;;;;;;;23.33;21.83;;;;;;;12.11;66.76;100692.88;5029137;28;20485;-73
2022/11/07 03:02:16;;;;;;;21.95;20.23;;;;;;;12.11;66.78;100685.56;5034997;28;20134;-72
2022/11/07 03:04:41;;;;;;;22.80;21.52;;;;;;;12.11;66.97;100690.97;5035355;28;20033;-72
2022/11/07 03:07:07;;;;;;;22.05;20.75;;;;;;;12.11;67.04;100685.56;5032020;28;20040;-72
2022/11/07 03:09:32;;;;;;;23.20;21.65;;;;;;;12.12;66.99;100687.22;5016008;28;20123;-72
2022/11/07 03:11:58;;;;;;;20.98;19.63;;;;;;;12.12;66.89;100689.09;5042168;28;20132;-72
2022/11/07 03:14:23;;;;;;;22.42;21.25;;;;;;;12.13;66.85;100696.16;5030084;28;20058;-73
2022/11/07 03:16:49;;;;;;;22.70;20.92;;;;;;;12.13;66.89;100693.44;5033151;28;20033;-72
2022/11/07 03:19:14;;;;;;;20.45;19.10;;;;;;;12.13;66.93;100694.25;5022902;28;20466;-73
2022/11/07 03:21:39;;;;;;;21.67;20.40;;;;;;;12.13;67.08;100683.41;5023101;28;20487;-72
2022/11/07 03:24:05;;;;;;;21.63;20.35;;;;;;;12.15;66.87;100679.66;5025848;28;20032;-73
2022/11/07 03:26:30;;;;;;;20.85;19.65;;;;;;;12.14;66.89;100689.66;5032794;28;20056;-75
2022/11/07 03:28:58;;;;;;;21.48;19.98;;;;;;;12.14;67.49;100689.66;5024748;28;20038;-73
2022/11/07 03:31:23;;;;;;;21.00;19.83;;;;;;;12.14;66.99;100692.34;5014374;28;20033;-73
2022/11/07 03:33:48;;;;;;;22.83;21.20;;;;;;;12.14;66.96;100692.34;5028226;28;20473;-73
2022/11/07 03:36:14;;;;;;;23.58;21.77;;;;;;;12.14;66.89;100692.34;5033207;28;20432;-76
2022/11/07 03:38:39;;;;;;;20.70;19.42;;;;;;;12.14;66.88;100695.06;5036389;28;20124;-76
2022/11/07 03:41:04;;;;;;;20.73;19.52;;;;;;;12.14;67.01;100703.19;5049462;28;20350;-72
2022/11/07 03:43:30;;;;;;;20.23;19.17;;;;;;;12.13;66.90;100688.84;5042609;28;20416;-73
2022/11/07 03:45:55;;;;;;;21.88;20.38;;;;;;;12.13;66.80;100698.84;5025988;28;20061;-71
2022/11/07 03:48:20;;;;;;;23.60;21.33;;;;;;;12.13;67.12;100696.16;5024788;28;20025;-72
2022/11/07 03:50:46;;;;;;;24.67;22.73;;;;;;;12.13;67.33;100691.53;5030727;28;20037;-72
2022/11/07 03:53:11;;;;;;;21.42;20.02;;;;;;;12.13;67.26;100690.72;5031022;28;20133;-72
2022/11/07 03:55:36;;;;;;;21.98;20.17;;;;;;;12.15;66.93;100694.00;5031862;28;20079;-71
2022/11/07 03:58:02;;;;;;;22.33;20.42;;;;;;;12.16;67.02;100689.41;5018963;28;20050;-72
2022/11/07 04:00:27;;;;;;;20.75;19.35;;;;;;;12.15;66.99;100702.13;5019720;28;20449;-73
2022/11/07 04:02:52;;;;;;;23.58;22.10;;;;;;;12.15;66.96;100694.00;5031413;28;20164;-71
2022/11/07 04:05:18;;;;;;;20.98;19.73;;;;;;;12.15;67.09;100695.91;5031973;28;20469;-73
2022/11/07 04:07:43;;;;;;;22.90;20.67;;;;;;;12.15;66.85;100699.44;5019698;28;20037;-71
2022/11/07 04:10:09;;;;;;;23.38;21.13;;;;;;;12.16;67.00;100705.66;5024645;28;20381;-72
2022/11/07 04:18:02;;;;;;;20.05;18.85;;;;;;;12.16;67.05;100701.06;5031018;28;20843;-74
2022/11/07 04:20:29;;;;;;;23.17;21.38;;;;;;;12.16;67.17;100709.19;5028873;28;20045;-73
2022/11/07 04:22:54;;;;;;;23.27;21.63;;;;;;;12.16;67.04;100713.78;5022024;28;20270;-73
2022/11/07 04:27:41;;;;;;;21.25;19.85;;;;;;;12.16;66.97;100711.88;5032422;28;20372;-71
2022/11/07 04:28:05;;;;;;;21.10;19.27;;;;;;;12.17;67.10;100715.41;5019555;28;20088;-72
2022/11/07 04:30:30;;;;;;;21.15;19.75;;;;;;;12.17;66.87;100723.53;5032968;28;20397;-73
2022/11/07 04:32:58;;;;;;;22.88;21.13;;;;;;;12.17;66.99;100710.81;5025322;28;20120;-73
2022/11/07 04:35:27;;;;;;;20.10;18.50;;;;;;;12.16;66.91;100709.19;5024872;28;20034;-71
2022/11/07 04:37:52;;;;;;;22.48;20.35;;;;;;;12.17;66.87;100704.56;5044925;28;20427;-72
2022/11/07 04:40:18;;;;;;;22.42;20.95;;;;;;;12.17;67.00;100712.69;5013060;28;20101;-72
2022/11/07 04:42:45;;;;;;;21.85;20.45;;;;;;;12.16;67.12;100709.19;5023191;28;20079;-78
2022/11/07 04:45:11;;;;;;;20.75;19.33;;;;;;;12.16;67.21;100714.59;5042349;28;20024;-72
2022/11/07 04:47:37;;;;;;;19.80;18.70;;;;;;;12.17;67.08;100713.53;5020642;28;20385;-74
2022/11/07 04:50:05;;;;;;;21.00;19.52;;;;;;;12.17;66.78;100721.66;5016300;28;20038;-73
2022/11/07 04:52:30;;;;;;;20.98;19.60;;;;;;;12.17;67.12;100721.66;5017775;28;20469;-71
2022/11/07 04:54:55;;;;;;;21.67;19.70;;;;;;;12.17;67.12;100723.53;5022554;28;20032;-73
2022/11/07 04:57:21;;;;;;;19.65;18.45;;;;;;;12.17;67.15;100713.53;5031446;28;20033;-74
2022/11/07 04:59:46;;;;;;;27.13;22.45;;;;;;;12.18;66.95;100711.63;5017343;28;20034;-75
2022/11/07 05:02:12;;;;;;;21.25;19.90;;;;;;;12.17;67.07;100721.66;5030957;28;20037;-72
2022/11/07 05:04:38;;;;;;;21.10;19.80;;;;;;;12.18;67.19;100725.19;5025413;28;20455;-73
2022/11/07 05:07:04;;;;;;;22.95;21.48;;;;;;;12.18;66.90;100727.88;5026610;28;20060;-72
2022/11/07 05:09:30;;;;;;;20.90;19.70;;;;;;;12.18;67.14;100725.19;5031750;28;20112;-72
2022/11/07 05:11:55;;;;;;;22.13;20.90;;;;;;;12.19;67.27;100721.38;5021887;28;20470;-73
2022/11/07 05:14:21;;;;;;;21.38;20.08;;;;;;;12.19;67.03;100727.63;5031834;28;20036;-74
2022/11/07 05:16:49;;;;;;;26.58;24.67;;;;;;;12.20;67.13;100726.56;5032599;28;20468;-75
2022/11/07 05:19:16;;;;;;;20.50;18.97;;;;;;;12.20;67.05;100721.16;5022169;28;20068;-74
2022/11/07 05:21:42;;;;;;;21.85;20.65;;;;;;;12.21;67.18;100730.91;5012624;28;20379;-72
2022/11/07 05:24:08;;;;;;;23.60;21.30;;;;;;;12.22;67.24;100726.28;5035504;28;20764;-73
2022/11/07 05:26:33;;;;;;;20.80;19.40;;;;;;;12.22;67.22;100731.72;5035163;28;20083;-74
2022/11/07 05:28:58;;;;;;;22.80;21.20;;;;;;;12.21;67.21;100720.06;5028861;28;20040;-71
2022/11/07 05:31:24;;;;;;;20.70;19.60;;;;;;;12.21;66.87;100725.47;5022293;28;20049;-72
2022/11/07 05:33:49;;;;;;;22.45;20.15;;;;;;;12.22;67.04;100727.13;5018753;28;20534;-75
2022/11/07 05:36:17;;;;;;;20.83;19.38;;;;;;;12.24;66.98;100729.56;5029180;28;20025;-71
2022/11/07 05:38:46;;;;;;;21.48;19.83;;;;;;;12.24;67.02;100724.97;5029203;28;20029;-74
2022/11/07 05:41:12;;;;;;;19.88;18.58;;;;;;;12.24;66.89;100722.25;5020005;28;20040;-73
2022/11/07 05:43:38;;;;;;;19.90;18.85;;;;;;;12.25;66.99;100728.50;5027656;28;20036;-72
2022/11/07 05:46:04;;;;;;;22.70;21.38;;;;;;;12.26;67.14;100727.44;5040248;28;20030;-72
2022/11/07 05:48:29;;;;;;;20.40;19.15;;;;;;;12.26;67.05;100717.41;5033993;28;20036;-74
2022/11/07 05:50:56;;;;;;;22.15;20.77;;;;;;;12.27;67.19;100721.78;5011642;28;20032;-73
2022/11/07 05:53:24;;;;;;;22.70;20.90;;;;;;;12.27;67.19;100719.06;5021475;28;20064;-72
2022/11/07 05:55:50;;;;;;;21.05;19.80;;;;;;;12.27;67.14;100713.66;5017507;28;20350;-74
2022/11/07 05:58:15;;;;;;;23.27;21.70;;;;;;;12.27;67.22;100719.06;5023563;28;20030;-73
2022/11/07 06:00:41;;;;;;;21.92;20.75;;;;;;;12.27;67.21;100715.50;5015994;28;20386;-72
2022/11/07 06:03:07;;;;;;;22.30;20.75;;;;;;;12.28;67.11;100720.69;5024796;28;20025;-73
2022/11/07 06:05:33;;;;;;;20.83;19.50;;;;;;;12.28;66.98;100726.09;5015877;28;20026;-72
2022/11/07 06:07:58;;;;;;;23.30;21.73;;;;;;;12.28;66.87;100719.88;5024081;28;20115;-73
2022/11/07 06:10:24;;;;;;;20.35;18.92;;;;;;;12.29;67.05;100722.31;5028991;28;20043;-70
2022/11/07 06:12:57;;;;;;;22.63;20.75;;;;;;;12.29;67.23;100727.72;5030903;28;20022;-71
2022/11/07 06:15:23;;;;;;;21.65;20.05;;;;;;;12.29;66.98;100724.22;5031575;28;20120;-72
2022/11/07 06:17:48;;;;;;;29.55;21.20;;;;;;;12.28;67.28;100731.53;5038619;28;20045;-73
2022/11/07 06:20:14;;;;;;;21.05;19.50;;;;;;;12.29;67.24;100724.22;5022454;28;20038;-72
2022/11/07 06:22:39;;;;;;;21.55;19.83;;;;;;;12.28;67.24;100726.09;5013932;28;20030;-72
2022/11/07 06:25:04;;;;;;;21.70;20.42;;;;;;;12.31;67.08;100725.59;5015987;28;20127;-71
2022/11/07 06:27:30;;;;;;;22.92;21.13;;;;;;;12.31;67.14;100727.47;5021686;28;20033;-72
2022/11/07 06:29:55;;;;;;;23.02;21.65;;;;;;;12.31;67.24;100724.78;5011866;28;20422;-74
2022/11/07 06:32:21;;;;;;;22.60;20.95;;;;;;;12.32;67.47;100731.81;5016501;28;20376;-75
2022/11/07 06:34:46;;;;;;;21.90;19.98;;;;;;;12.31;67.00;100735.59;5027604;28;20025;-76
2022/11/07 06:37:12;;;;;;;25.30;23.25;;;;;;;12.31;67.15;100744.53;5015050;28;20121;-77
2022/11/07 06:39:37;;;;;;;22.48;20.80;;;;;;;12.32;67.31;100742.66;5048519;28;20594;-74
2022/11/07 06:42:03;;;;;;;22.17;20.75;;;;;;;12.32;67.08;100740.78;5019055;28;20112;-72
2022/11/07 06:44:28;;;;;;;20.58;19.38;;;;;;;12.32;67.37;100746.19;5031557;28;20452;-74
2022/11/07 06:46:53;;;;;;;23.98;22.27;;;;;;;12.32;67.17;100762.44;5033263;28;20029;-75
2022/11/07 06:49:19;;;;;;;21.33;20.10;;;;;;;12.33;67.08;100763.25;5028743;28;20030;-73
2022/11/07 06:51:44;;;;;;;21.00;19.70;;;;;;;12.33;67.13;100755.94;5018389;28;20084;-76
2022/11/07 06:54:10;;;;;;;21.63;20.33;;;;;;;12.33;67.18;100764.06;5039872;28;20055;-73
2022/11/07 06:56:35;;;;;;;21.92;20.73;;;;;;;12.33;67.23;100755.94;5033905;28;20088;-75
2022/11/07 06:59:01;;;;;;;21.20;20.00;;;;;;;12.34;67.27;100764.88;5034151;28;20053;-73
2022/11/07 07:01:26;;;;;;;21.40;19.85;;;;;;;12.34;67.25;100767.59;5030951;28;20033;-76
2022/11/07 07:03:52;;;;;;;20.88;19.73;;;;;;;12.34;67.40;100776.53;5045497;28;20040;-71
2022/11/07 07:06:17;;;;;;;21.58;20.15;;;;;;;12.35;67.16;100777.38;5032564;28;20060;-76
2022/11/07 07:08:44;;;;;;;22.38;20.88;;;;;;;12.34;67.32;100767.59;5039834;28;20489;-71
2022/11/07 07:11:12;;;;;;;21.40;20.02;;;;;;;12.34;67.27;100781.94;5024669;28;20117;-72
2022/11/07 07:13:37;;;;;;;21.25;19.67;;;;;;;12.34;67.36;100781.16;5015706;28;20036;-73
2022/11/07 07:16:03;;;;;;;22.65;21.05;;;;;;;12.34;67.43;100781.94;5039627;28;20026;-73
2022/11/07 07:18:30;;;;;;;22.92;21.55;;;;;;;12.36;67.43;100789.03;5034677;28;20057;-72
2022/11/07 07:21:02;;;;;;;21.38;20.15;;;;;;;12.36;67.49;100781.72;5032774;28;20064;-72
2022/11/07 07:23:27;;;;;;;22.30;20.85;;;;;;;12.36;67.46;100779.00;5024814;28;20461;-74
2022/11/07 07:25:53;;;;;;;22.50;20.83;;;;;;;12.36;67.31;100789.84;5014893;28;20044;-71
2022/11/07 07:28:18;;;;;;;21.88;20.15;;;;;;;12.36;67.61;100792.53;5020443;28;20033;-71
2022/11/07 07:30:43;;;;;;;20.75;19.45;;;;;;;12.36;67.55;100784.41;5026770;28;20060;-72
2022/11/07 07:33:09;;;;;;;22.23;20.60;;;;;;;12.36;67.63;100789.84;5019139;28;20033;-73
2022/11/07 07:35:34;;;;;;;22.88;21.35;;;;;;;12.37;67.69;100790.66;5010061;28;20030;-72
2022/11/07 07:38:00;;;;;;;22.90;21.48;;;;;;;12.37;67.42;100794.16;5018678;28;20050;-79
2022/11/07 07:40:25;;;;;;;22.40;20.80;;;;;;;12.38;67.72;100800.44;5022595;28;20032;-72
2022/11/07 07:42:50;;;;;;;20.17;19.05;;;;;;;12.38;67.52;100811.28;5028157;28;20084;-77
2022/11/07 07:45:16;;;;;;;23.45;21.33;;;;;;;12.39;67.63;100807.47;5026218;28;20060;-71
2022/11/07 07:47:41;;;;;;;22.10;20.80;;;;;;;12.39;67.76;100819.13;5026435;28;20037;-73
2022/11/07 07:50:10;;;;;;;23.38;21.98;;;;;;;12.40;67.66;100814.50;5025545;28;20040;-72
2022/11/07 07:52:35;;;;;;;20.80;19.60;;;;;;;12.41;67.34;100817.00;5030440;28;20044;-72
2022/11/07 07:55:01;;;;;;;23.08;21.77;;;;;;;12.40;67.94;100822.66;5028754;28;20787;-74
2022/11/07 07:57:26;;;;;;;20.40;19.30;;;;;;;12.40;67.86;100811.81;5028098;28;20038;-72
2022/11/07 07:59:51;;;;;;;22.95;21.55;;;;;;;12.40;67.60;100815.38;5011403;28;20088;-72
2022/11/07 08:02:17;;;;;;;23.98;22.00;;;;;;;12.41;67.87;100808.84;5027461;28;20490;-75
2022/11/07 08:04:43;;;;;;;25.70;24.10;;;;;;;12.41;67.95;100811.56;5025318;28;20047;-71
2022/11/07 08:07:09;;;;;;;23.25;21.13;;;;;;;12.42;67.87;100824.03;5022889;28;20481;-71
2022/11/07 08:09:37;;;;;;;22.13;20.48;;;;;;;12.42;68.23;100801.53;5021876;28;20057;-74
2022/11/07 08:12:04;;;;;;;22.80;21.60;;;;;;;12.43;68.21;100809.44;5024451;28;20533;-74
2022/11/07 08:14:29;;;;;;;22.23;20.50;;;;;;;12.45;67.74;100818.13;5017793;28;20072;-72
2022/11/07 08:16:55;;;;;;;23.52;21.20;;;;;;;12.45;68.10;100817.31;5026256;28;20044;-74
2022/11/07 08:19:20;;;;;;;23.50;21.58;;;;;;;12.46;68.05;100817.03;5023613;28;20034;-72
2022/11/07 08:21:46;;;;;;;23.15;21.75;;;;;;;12.47;68.13;100820.56;5024052;28;20472;-71
2022/11/07 08:24:11;;;;;;;22.67;21.30;;;;;;;12.47;68.30;100820.56;5021110;28;20470;-71
2022/11/07 08:26:37;;;;;;;21.95;20.48;;;;;;;12.48;68.30;100820.31;5026898;28;20041;-71
2022/11/07 08:29:03;;;;;;;20.48;19.27;;;;;;;12.50;68.21;100830.91;5026789;28;20108;-71
2022/11/07 08:31:28;;;;;;;22.30;20.48;;;;;;;12.50;68.34;100826.31;5025175;28;20036;-75
2022/11/07 08:33:57;;;;;;;22.75;20.73;;;;;;;12.52;68.52;100845.84;5018189;28;20033;-75
2022/11/07 08:36:23;;;;;;;23.85;22.35;;;;;;;12.52;68.40;100840.44;5041309;28;20101;-73
2022/11/07 08:38:49;;;;;;;23.85;22.20;;;;;;;12.53;68.40;100850.19;5026866;28;20050;-72
2022/11/07 08:41:14;;;;;;;21.70;20.50;;;;;;;12.54;68.45;100854.53;5024027;28;20120;-73
2022/11/07 08:43:39;;;;;;;22.10;20.90;;;;;;;12.54;68.36;100840.97;5017279;28;20355;-74
2022/11/07 08:46:05;;;;;;;23.48;22.17;;;;;;;12.56;68.40;100843.44;5022251;28;20067;-75
2022/11/07 08:48:30;;;;;;;21.70;20.17;;;;;;;12.58;68.48;100848.63;5017540;28;20064;-71
2022/11/07 08:50:57;;;;;;;22.70;21.30;;;;;;;12.58;68.60;100860.28;5022617;28;20029;-78
2022/11/07 08:53:24;;;;;;;23.25;21.85;;;;;;;12.59;68.61;100853.75;5020930;28;20033;-75
2022/11/07 08:55:50;;;;;;;24.23;22.27;;;;;;;12.60;68.39;100868.97;5023148;28;20059;-72
2022/11/07 08:58:15;;;;;;;22.08;20.60;;;;;;;12.61;68.47;100865.19;5028696;28;20104;-75
2022/11/07 09:00:41;;;;;;;21.75;20.23;;;;;;;12.61;68.79;100867.88;5026864;28;20461;-72
2022/11/07 09:03:13;;;;;;;22.23;20.90;;;;;;;12.62;68.68;100874.94;5020370;28;20038;-76
2022/11/07 09:05:39;;;;;;;23.23;21.45;;;;;;;12.63;69.04;100879.31;5021014;28;20030;-73
2022/11/07 09:08:05;;;;;;;22.13;20.80;;;;;;;12.63;68.86;100876.59;5025143;28;20022;-74
2022/11/07 09:10:30;;;;;;;22.13;20.83;;;;;;;12.66;68.91;100872.56;5021619;28;20049;-71
2022/11/07 09:12:56;;;;;;;23.30;21.70;;;;;;;12.67;68.91;100880.41;5023483;28;20560;-72
2022/11/07 09:15:21;;;;;;;23.15;21.67;;;;;;;12.68;68.78;100878.53;5027408;28;20025;-73
2022/11/07 09:17:47;;;;;;;24.02;22.52;;;;;;;12.68;68.98;100878.53;5024557;28;20030;-73
2022/11/07 09:20:13;;;;;;;22.23;20.75;;;;;;;12.69;68.81;100885.59;5028099;28;20046;-73
2022/11/07 09:22:39;;;;;;;22.67;21.38;;;;;;;12.70;68.72;100882.63;5021382;28;20464;-73
2022/11/07 09:25:04;;;;;;;21.80;20.27;;;;;;;12.72;68.92;100893.22;5022738;28;20033;-72
2022/11/07 09:27:30;;;;;;;21.73;20.42;;;;;;;12.72;68.50;100890.50;5024711;28;20049;-74
2022/11/07 09:29:55;;;;;;;22.40;21.20;;;;;;;12.73;68.87;100894.88;5025850;28;20037;-72
2022/11/07 09:32:21;;;;;;;22.27;21.08;;;;;;;12.74;69.14;100893.78;5019063;28;20088;-71
2022/11/07 09:34:46;;;;;;;23.13;21.83;;;;;;;12.74;68.98;100902.72;5020593;28;20025;-72
2022/11/07 09:37:11;;;;;;;22.77;21.40;;;;;;;12.74;69.05;100891.88;5025568;28;20072;-72
2022/11/07 09:39:37;;;;;;;25.10;22.90;;;;;;;12.76;68.96;100894.34;5021876;28;20049;-72
2022/11/07 09:42:13;;;;;;;24.30;22.40;;;;;;;12.77;69.09;100893.25;5018566;28;20040;-74
2022/11/07 09:44:47;;;;;;;23.23;21.80;;;;;;;12.79;69.09;100891.13;5027356;28;20072;-73
2022/11/07 09:47:21;;;;;;;23.63;22.17;;;;;;;12.81;68.73;100899.03;5018569;28;20021;-71
2022/11/07 09:49:58;;;;;;;23.90;22.52;;;;;;;12.82;69.21;100892.50;5021087;28;20053;-71
2022/11/07 09:52:30;;;;;;;25.75;23.02;;;;;;;12.83;68.89;100894.16;5024311;28;20026;-72
2022/11/07 09:55:28;;;;;;;22.25;21.00;;;;;;;12.82;69.00;100898.75;5019137;28;20109;-76
2022/11/07 09:57:59;;;;;;;23.13;21.63;;;;;;;12.85;68.89;100897.41;5022058;28;20044;-76
2022/11/07 10:00:26;;;;;;;24.60;22.92;;;;;;;12.85;68.87;100883.88;5022343;28;20025;-72
2022/11/07 10:02:55;;;;;;;23.17;21.50;;;;;;;12.87;68.50;100884.44;5027563;28;20041;-71
2022/11/07 10:05:45;;;;;;;23.80;22.33;;;;;;;12.87;68.93;100900.69;5026024;28;20036;-72
2022/11/07 10:08:24;;;;;;;25.02;22.75;;;;;;;12.87;68.86;100893.38;5024467;28;20025;-71
2022/11/07 10:10:58;;;;;;;23.85;22.55;;;;;;;12.89;68.79;100895.84;5012842;28;20063;-71
2022/11/07 10:14:00;;;;;;;25.35;23.67;;;;;;;12.89;69.14;100901.28;5028664;28;20113;-72
2022/11/07 10:16:49;;;;;;;25.30;23.20;;;;;;;12.92;68.90;100917.03;5025357;28;20022;-75
2022/11/07 10:19:26;;;;;;;23.77;22.38;;;;;;;12.92;68.76;100920.56;5021601;28;20026;-72
2022/11/07 10:22:08;;;;;;;24.02;21.27;;;;;;;12.94;68.87;100914.88;5044997;28;20304;-73
2022/11/07 10:24:50;;;;;;;23.02;21.67;;;;;;;12.95;68.97;100922.78;5027574;28;20883;-73
2022/11/07 10:27:16;;;;;;;23.23;21.83;;;;;;;12.98;68.94;100935.81;5029025;28;20057;-73
2022/11/07 10:29:51;;;;;;;23.40;21.38;;;;;;;13.00;69.09;100930.13;5031962;28;20067;-73
2022/11/07 10:33:02;;;;;;;25.20;23.38;;;;;;;13.01;68.94;100933.69;5030980;28;20057;-72
2022/11/07 10:35:30;;;;;;;24.45;22.77;;;;;;;13.02;68.87;100930.69;5028700;28;20036;-71
2022/11/07 10:37:59;;;;;;;24.20;22.25;;;;;;;13.03;68.99;100934.22;5018673;28;20053;-73
2022/11/07 10:40:37;;;;;;;23.10;21.45;;;;;;;13.05;68.96;100945.63;5029861;28;20353;-75
2022/11/07 10:43:07;;;;;;;21.70;20.50;;;;;;;13.05;68.98;100932.06;5031758;28;20029;-71
2022/11/07 10:45:33;;;;;;;24.63;22.23;;;;;;;13.06;68.86;100934.56;5031610;28;20033;-71
2022/11/07 10:48:02;;;;;;;23.55;22.35;;;;;;;13.09;69.10;100935.94;5026737;28;20034;-73
2022/11/07 10:50:28;;;;;;;26.33;24.15;;;;;;;13.11;69.16;100950.06;5026442;28;20037;-73
2022/11/07 10:53:04;;;;;;;25.10;23.38;;;;;;;13.13;68.91;100947.91;5034770;28;20033;-72
2022/11/07 10:55:41;;;;;;;25.75;23.42;;;;;;;13.14;68.96;100938.69;5030407;28;20500;-72
2022/11/07 10:58:06;;;;;;;23.05;21.75;;;;;;;13.15;69.07;100952.03;5025544;28;20033;-72
2022/11/07 11:00:35;;;;;;;25.17;23.67;;;;;;;13.16;68.85;100947.41;5028457;28;20046;-73
2022/11/07 11:03:00;;;;;;;22.88;21.13;;;;;;;13.16;69.22;100926.53;5029836;28;20053;-72
2022/11/07 11:05:32;;;;;;;23.50;22.10;;;;;;;13.18;69.08;100934.41;5021407;28;20065;-72
2022/11/07 11:08:15;;;;;;;23.50;21.95;;;;;;;13.20;69.39;100926.81;5031554;28;20033;-71
2022/11/07 11:10:41;;;;;;;22.58;20.88;;;;;;;13.23;68.94;100914.63;5030860;28;20151;-72
2022/11/07 11:13:24;;;;;;;23.15;21.60;;;;;;;13.23;69.41;100920.91;5029341;28;20018;-72
2022/11/07 11:15:49;;;;;;;26.30;24.05;;;;;;;13.26;69.16;100916.84;5027223;28;20120;-73
2022/11/07 11:18:17;;;;;;;22.40;20.90;;;;;;;13.27;68.99;100929.38;5017653;28;20512;-72
2022/11/07 11:20:52;;;;;;;24.52;22.60;;;;;;;13.29;68.90;100930.75;5031456;28;20465;-72